createdAt,value
2022-11-28T00:00:16.416Z,1016.80
2022-11-28T00:01:16.411Z,1016.77
2022-11-28T00:02:16.573Z,1016.74
2022-11-28T00:03:16.512Z,1016.80
2022-11-28T00:04:16.397Z,1016.79
2022-11-28T00:05:16.508Z,1016.76
2022-11-28T00:06:16.397Z,1016.75
2022-11-28T00:07:16.432Z,1016.80
2022-11-28T00:08:16.379Z,1016.76
2022-11-28T00:09:16.375Z,1016.75
2022-11-28T00:10:16.373Z,1016.72
2022-11-28T00:11:16.364Z,1016.74
2022-11-28T00:12:16.365Z,1016.73
2022-11-28T00:13:16.354Z,1016.66
2022-11-28T00:14:16.684Z,1016.61
2022-11-28T00:15:16.350Z,1016.62
2022-11-28T00:16:16.430Z,1016.63
2022-11-28T00:17:16.341Z,1016.62
2022-11-28T00:18:16.339Z,1016.60
2022-11-28T00:19:16.335Z,1016.56
2022-11-28T00:20:16.326Z,1016.57
2022-11-28T00:21:16.433Z,1016.60
2022-11-28T00:22:16.324Z,1016.60
2022-11-28T00:23:16.325Z,1016.58
2022-11-28T00:24:16.315Z,1016.54
2022-11-28T00:25:16.304Z,1016.55
2022-11-28T00:26:16.308Z,1016.51
2022-11-28T00:27:16.297Z,1016.53
2022-11-28T00:28:16.289Z,1016.55
2022-11-28T00:29:16.287Z,1016.52
2022-11-28T00:30:16.287Z,1016.50
2022-11-28T00:31:16.371Z,1016.51
2022-11-28T00:32:16.361Z,1016.47
2022-11-28T00:33:16.268Z,1016.49
2022-11-28T00:34:16.274Z,1016.50
2022-11-28T00:35:16.258Z,1016.49
2022-11-28T00:36:16.264Z,1016.48
2022-11-28T00:37:16.371Z,1016.46
2022-11-28T00:38:16.251Z,1016.41
2022-11-28T00:39:16.246Z,1016.40
2022-11-28T00:40:16.237Z,1016.42
2022-11-28T00:41:16.235Z,1016.39
2022-11-28T00:42:16.235Z,1016.42
2022-11-28T00:43:16.226Z,1016.34
2022-11-28T00:44:16.223Z,1016.34
2022-11-28T00:45:16.215Z,1016.32
2022-11-28T00:46:16.293Z,1016.33
2022-11-28T00:47:16.210Z,1016.33
2022-11-28T00:48:16.205Z,1016.30
2022-11-28T00:49:16.202Z,1016.31
2022-11-28T00:50:16.201Z,1016.30
2022-11-28T00:51:16.191Z,1016.29
2022-11-28T00:52:16.188Z,1016.29
2022-11-28T00:53:16.292Z,1016.27
2022-11-28T00:54:16.186Z,1016.27
2022-11-28T00:55:16.171Z,1016.31
2022-11-28T00:56:16.171Z,1016.29
2022-11-28T00:57:16.161Z,1016.31
2022-11-28T00:58:16.162Z,1016.24
2022-11-28T00:59:16.156Z,1016.23
2022-11-28T01:00:16.160Z,1016.28
2022-11-28T01:01:16.185Z,1016.26
2022-11-28T01:02:16.211Z,1016.23
2022-11-28T01:03:16.137Z,1016.25
2022-11-28T01:04:16.134Z,1016.29
2022-11-28T01:05:16.129Z,1016.28
2022-11-28T01:06:16.130Z,1016.29
2022-11-28T01:07:16.154Z,1016.25
2022-11-28T01:08:16.119Z,1016.25
2022-11-28T01:09:16.232Z,1016.24
2022-11-28T01:10:16.108Z,1016.22
2022-11-28T01:11:16.099Z,1016.19
2022-11-28T01:12:16.103Z,1016.22
2022-11-28T01:13:16.094Z,1016.18
2022-11-28T01:14:16.092Z,1016.18
2022-11-28T01:15:16.081Z,1016.16
2022-11-28T01:16:16.183Z,1016.17
2022-11-28T01:17:16.079Z,1016.10
2022-11-28T01:18:16.077Z,1016.10
2022-11-28T01:19:16.187Z,1016.08
2022-11-28T01:20:16.065Z,1016.04
2022-11-28T01:21:16.052Z,1016.08
2022-11-28T01:22:16.054Z,1016.06
2022-11-28T01:23:16.050Z,1016.07
2022-11-28T01:24:16.046Z,1016.08
2022-11-28T01:25:16.170Z,1016.04
2022-11-28T01:26:16.038Z,1016.04
2022-11-28T01:27:16.029Z,1016.01
2022-11-28T01:28:16.028Z,1015.96
2022-11-28T01:29:16.033Z,1015.98
2022-11-28T01:30:16.032Z,1015.96
2022-11-28T01:31:16.117Z,1016.01
2022-11-28T01:32:16.012Z,1015.95
2022-11-28T01:33:16.018Z,1015.96
2022-11-28T01:34:15.997Z,1015.94
2022-11-28T01:35:16.010Z,1015.93
2022-11-28T01:36:15.993Z,1015.88
2022-11-28T01:37:15.997Z,1015.89
2022-11-28T01:38:15.986Z,1015.83
2022-11-28T01:39:15.984Z,1015.83
2022-11-28T01:40:15.984Z,1015.82
2022-11-28T01:41:16.083Z,1015.83
2022-11-28T01:42:15.964Z,1015.82
2022-11-28T01:43:15.953Z,1015.83
2022-11-28T01:44:15.949Z,1015.84
2022-11-28T01:45:15.947Z,1015.85
2022-11-28T01:46:15.975Z,1015.80
2022-11-28T01:47:15.940Z,1015.79
2022-11-28T01:48:15.935Z,1015.75
2022-11-28T01:49:15.931Z,1015.72
2022-11-28T01:50:15.930Z,1015.74
2022-11-28T01:51:15.925Z,1015.73
2022-11-28T01:52:15.919Z,1015.73
2022-11-28T01:53:15.909Z,1015.73
2022-11-28T01:54:15.911Z,1015.65
2022-11-28T01:55:15.900Z,1015.69
2022-11-28T01:56:15.897Z,1015.67
2022-11-28T01:57:16.012Z,1015.66
2022-11-28T01:58:15.889Z,1015.67
2022-11-28T01:59:15.884Z,1015.66
2022-11-28T02:00:15.882Z,1015.66
2022-11-28T02:01:15.951Z,1015.67
2022-11-28T02:02:15.924Z,1015.69
2022-11-28T02:03:15.862Z,1015.68
2022-11-28T02:04:15.863Z,1015.64
2022-11-28T02:05:15.857Z,1015.68
2022-11-28T02:06:15.858Z,1015.66
2022-11-28T02:07:15.873Z,1015.67
2022-11-28T02:08:15.845Z,1015.64
2022-11-28T02:09:15.839Z,1015.61
2022-11-28T02:10:15.837Z,1015.60
2022-11-28T02:11:15.830Z,1015.63
2022-11-28T02:12:15.827Z,1015.59
2022-11-28T02:13:15.931Z,1015.60
2022-11-28T02:14:15.820Z,1015.59
2022-11-28T02:15:15.811Z,1015.63
2022-11-28T02:16:15.955Z,1015.60
2022-11-28T02:17:15.799Z,1015.56
2022-11-28T02:18:15.800Z,1015.56
2022-11-28T02:19:15.795Z,1015.55
2022-11-28T02:20:15.796Z,1015.53
2022-11-28T02:21:15.782Z,1015.51
2022-11-28T02:22:15.782Z,1015.44
2022-11-28T02:23:15.770Z,1015.40
2022-11-28T02:24:15.769Z,1015.43
2022-11-28T02:25:15.764Z,1015.42
2022-11-28T02:26:15.767Z,1015.42
2022-11-28T02:27:15.754Z,1015.42
2022-11-28T02:28:15.755Z,1015.34
2022-11-28T02:29:15.856Z,1015.36
2022-11-28T02:30:15.744Z,1015.40
2022-11-28T02:31:15.802Z,1015.33
2022-11-28T02:32:15.734Z,1015.37
2022-11-28T02:33:15.727Z,1015.34
2022-11-28T02:34:15.731Z,1015.37
2022-11-28T02:35:15.717Z,1015.34
2022-11-28T02:36:15.718Z,1015.29
2022-11-28T02:37:15.707Z,1015.32
2022-11-28T02:38:15.709Z,1015.26
2022-11-28T02:39:15.700Z,1015.25
2022-11-28T02:40:15.699Z,1015.26
2022-11-28T02:41:15.693Z,1015.26
2022-11-28T02:42:15.687Z,1015.27
2022-11-28T02:43:15.683Z,1015.26
2022-11-28T02:44:15.680Z,1015.24
2022-11-28T02:45:15.787Z,1015.23
2022-11-28T02:46:15.725Z,1015.24
2022-11-28T02:47:15.676Z,1015.20
2022-11-28T02:48:15.662Z,1015.19
2022-11-28T02:49:15.654Z,1015.19
2022-11-28T02:50:15.650Z,1015.20
2022-11-28T02:51:15.642Z,1015.21
2022-11-28T02:52:15.642Z,1015.19
2022-11-28T02:53:15.636Z,1015.20
2022-11-28T02:54:15.630Z,1015.18
2022-11-28T02:55:15.626Z,1015.20
2022-11-28T02:56:15.622Z,1015.20
2022-11-28T02:57:15.615Z,1015.15
2022-11-28T02:58:15.615Z,1015.19
2022-11-28T02:59:15.604Z,1015.17
2022-11-28T03:00:17.874Z,1015.19
2022-11-28T03:01:15.812Z,1015.15
2022-11-28T03:02:15.656Z,1015.17
2022-11-28T03:03:15.618Z,1015.17
2022-11-28T03:04:15.592Z,1015.12
2022-11-28T03:05:15.580Z,1015.10
2022-11-28T03:06:15.575Z,1015.10
2022-11-28T03:07:15.617Z,1015.07
2022-11-28T03:08:15.568Z,1015.10
2022-11-28T03:09:15.561Z,1015.08
2022-11-28T03:10:15.561Z,1015.05
2022-11-28T03:11:15.550Z,1015.00
2022-11-28T03:12:15.557Z,1015.02
2022-11-28T03:13:15.542Z,1014.97
2022-11-28T03:14:15.538Z,1014.97
2022-11-28T03:15:15.535Z,1014.93
2022-11-28T03:16:15.588Z,1014.93
2022-11-28T03:17:15.638Z,1014.91
2022-11-28T03:18:15.522Z,1014.90
2022-11-28T03:19:15.515Z,1014.89
2022-11-28T03:20:15.511Z,1014.84
2022-11-28T03:21:15.507Z,1014.91
2022-11-28T03:22:15.506Z,1014.89
2022-11-28T03:23:15.495Z,1014.83
2022-11-28T03:24:15.509Z,1014.82
2022-11-28T03:25:15.486Z,1014.82
2022-11-28T03:26:15.481Z,1014.87
2022-11-28T03:27:15.476Z,1014.82
2022-11-28T03:28:15.474Z,1014.78
2022-11-28T03:29:15.468Z,1014.79
2022-11-28T03:30:15.473Z,1014.83
2022-11-28T03:31:15.531Z,1014.82
2022-11-28T03:32:15.464Z,1014.78
2022-11-28T03:33:15.571Z,1014.77
2022-11-28T03:34:15.446Z,1014.81
2022-11-28T03:35:15.441Z,1014.78
2022-11-28T03:36:15.437Z,1014.76
2022-11-28T03:37:15.430Z,1014.80
2022-11-28T03:38:15.431Z,1014.78
2022-11-28T03:39:15.429Z,1014.76
2022-11-28T03:40:15.426Z,1014.79
2022-11-28T03:41:15.412Z,1014.76
2022-11-28T03:42:15.415Z,1014.80
2022-11-28T03:43:15.404Z,1014.80
2022-11-28T03:44:15.401Z,1014.83
2022-11-28T03:45:15.398Z,1014.78
2022-11-28T03:46:15.413Z,1014.79
2022-11-28T03:47:15.384Z,1014.75
2022-11-28T03:48:15.387Z,1014.78
2022-11-28T03:49:15.488Z,1014.78
2022-11-28T03:50:15.377Z,1014.74
2022-11-28T03:51:15.367Z,1014.75
2022-11-28T03:52:15.367Z,1014.72
2022-11-28T03:53:15.353Z,1014.68
2022-11-28T03:54:15.354Z,1014.72
2022-11-28T03:55:15.342Z,1014.68
2022-11-28T03:56:15.369Z,1014.68
2022-11-28T03:57:15.337Z,1014.66
2022-11-28T03:58:15.335Z,1014.62
2022-11-28T03:59:15.324Z,1014.58
2022-11-28T04:00:15.327Z,1014.62
2022-11-28T04:01:15.351Z,1014.58
2022-11-28T04:02:15.318Z,1014.60
2022-11-28T04:03:15.361Z,1014.54
2022-11-28T04:04:15.305Z,1014.58
2022-11-28T04:05:15.427Z,1014.59
2022-11-28T04:06:15.305Z,1014.54
2022-11-28T04:07:15.352Z,1014.53
2022-11-28T04:08:15.291Z,1014.59
2022-11-28T04:09:15.278Z,1014.60
2022-11-28T04:10:15.275Z,1014.56
2022-11-28T04:11:15.275Z,1014.60
2022-11-28T04:12:15.266Z,1014.60
2022-11-28T04:13:15.270Z,1014.60
2022-11-28T04:14:15.261Z,1014.58
2022-11-28T04:15:15.258Z,1014.62
2022-11-28T04:16:15.300Z,1014.61
2022-11-28T04:17:15.248Z,1014.56
2022-11-28T04:18:15.241Z,1014.59
2022-11-28T04:19:15.242Z,1014.59
2022-11-28T04:20:15.234Z,1014.60
2022-11-28T04:21:15.345Z,1014.55
2022-11-28T04:22:15.218Z,1014.55
2022-11-28T04:23:15.219Z,1014.55
2022-11-28T04:24:15.208Z,1014.55
2022-11-28T04:25:15.206Z,1014.51
2022-11-28T04:26:15.201Z,1014.51
2022-11-28T04:27:15.202Z,1014.46
2022-11-28T04:28:15.192Z,1014.49
2022-11-28T04:29:15.190Z,1014.46
2022-11-28T04:30:15.182Z,1014.50
2022-11-28T04:31:15.214Z,1014.49
2022-11-28T04:32:15.178Z,1014.46
2022-11-28T04:33:15.172Z,1014.47
2022-11-28T04:34:15.164Z,1014.43
2022-11-28T04:35:15.162Z,1014.42
2022-11-28T04:36:15.152Z,1014.39
2022-11-28T04:37:15.263Z,1014.42
2022-11-28T04:38:15.149Z,1014.41
2022-11-28T04:39:15.143Z,1014.39
2022-11-28T04:40:15.137Z,1014.39
2022-11-28T04:41:15.135Z,1014.41
2022-11-28T04:42:15.131Z,1014.42
2022-11-28T04:43:15.130Z,1014.36
2022-11-28T04:44:15.123Z,1014.35
2022-11-28T04:45:15.115Z,1014.34
2022-11-28T04:46:15.206Z,1014.38
2022-11-28T04:47:15.104Z,1014.37
2022-11-28T04:48:15.095Z,1014.36
2022-11-28T04:49:15.098Z,1014.33
2022-11-28T04:50:15.101Z,1014.37
2022-11-28T04:51:15.104Z,1014.37
2022-11-28T04:52:15.077Z,1014.36
2022-11-28T04:53:15.213Z,1014.38
2022-11-28T04:54:15.082Z,1014.41
2022-11-28T04:55:15.071Z,1014.38
2022-11-28T04:56:15.061Z,1014.36
2022-11-28T04:57:07.406Z,1014.41
2022-11-28T04:58:07.399Z,1014.38
2022-11-28T04:59:07.390Z,1014.36
2022-11-28T05:00:07.385Z,1014.38
2022-11-28T05:01:07.460Z,1014.40
2022-11-28T05:02:07.441Z,1014.41
2022-11-28T05:03:07.373Z,1014.38
2022-11-28T05:04:07.363Z,1014.39
2022-11-28T05:05:07.361Z,1014.35
2022-11-28T05:06:07.359Z,1014.38
2022-11-28T05:07:07.360Z,1014.41
2022-11-28T05:08:07.347Z,1014.39
2022-11-28T05:09:07.461Z,1014.38
2022-11-28T05:10:07.337Z,1014.38
2022-11-28T05:11:07.337Z,1014.41
2022-11-28T05:12:07.332Z,1014.38
2022-11-28T05:13:07.326Z,1014.39
2022-11-28T05:14:07.320Z,1014.38
2022-11-28T05:15:07.322Z,1014.40
2022-11-28T05:16:07.391Z,1014.34
2022-11-28T05:17:07.314Z,1014.38
2022-11-28T05:18:07.295Z,1014.39
2022-11-28T05:19:07.294Z,1014.35
2022-11-28T05:20:07.296Z,1014.33
2022-11-28T05:21:07.287Z,1014.39
2022-11-28T05:22:07.285Z,1014.31
2022-11-28T05:23:07.277Z,1014.36
2022-11-28T05:24:07.270Z,1014.34
2022-11-28T05:25:07.295Z,1014.30
2022-11-28T05:26:07.267Z,1014.32
2022-11-28T05:27:07.257Z,1014.30
2022-11-28T05:28:07.249Z,1014.28
2022-11-28T05:29:07.255Z,1014.27
2022-11-28T05:30:07.245Z,1014.30
2022-11-28T05:31:07.288Z,1014.28
2022-11-28T05:32:07.249Z,1014.26
2022-11-28T05:33:07.239Z,1014.30
2022-11-28T05:34:07.222Z,1014.28
2022-11-28T05:35:07.224Z,1014.32
2022-11-28T05:36:12.359Z,1014.27
2022-11-28T05:37:07.212Z,1014.27
2022-11-28T05:38:13.290Z,1014.23
2022-11-28T05:39:07.205Z,1014.24
2022-11-28T05:40:07.203Z,1014.27
2022-11-28T05:41:07.316Z,1014.27
2022-11-28T05:42:07.186Z,1014.21
2022-11-28T05:43:07.188Z,1014.21
2022-11-28T05:44:07.175Z,1014.18
2022-11-28T05:45:07.179Z,1014.19
2022-11-28T05:46:07.233Z,1014.16
2022-11-28T05:47:07.164Z,1014.16
2022-11-28T05:48:07.158Z,1014.16
2022-11-28T05:49:07.157Z,1014.19
2022-11-28T05:50:07.147Z,1014.14
2022-11-28T05:51:07.144Z,1014.16
2022-11-28T05:52:07.143Z,1014.14
2022-11-28T05:53:07.140Z,1014.14
2022-11-28T05:54:07.132Z,1014.09
2022-11-28T05:55:07.131Z,1014.14
2022-11-28T05:56:07.120Z,1014.07
2022-11-28T05:57:07.240Z,1014.05
2022-11-28T05:58:07.110Z,1014.10
2022-11-28T05:59:07.113Z,1014.11
2022-11-28T06:00:07.106Z,1014.08
2022-11-28T06:01:07.105Z,1014.11
2022-11-28T06:02:07.164Z,1014.11
2022-11-28T06:03:07.087Z,1014.13
2022-11-28T06:04:07.178Z,1014.10
2022-11-28T06:05:27.226Z,1014.14
2022-11-28T06:06:07.074Z,1014.11
2022-11-28T06:07:07.079Z,1014.04
2022-11-28T06:08:07.064Z,1014.07
2022-11-28T06:09:07.064Z,1014.05
2022-11-28T06:10:07.059Z,1014.02
2022-11-28T06:11:07.062Z,1013.97
2022-11-28T06:12:07.048Z,1013.98
2022-11-28T06:13:07.179Z,1013.95
2022-11-28T06:14:07.040Z,1013.92
2022-11-28T06:15:07.038Z,1013.95
2022-11-28T06:16:07.093Z,1013.92
2022-11-28T06:17:07.026Z,1013.90
2022-11-28T06:18:07.020Z,1013.89
2022-11-28T06:19:07.017Z,1013.82
2022-11-28T06:20:07.011Z,1013.89
2022-11-28T06:21:07.010Z,1013.83
2022-11-28T06:22:07.002Z,1013.84
2022-11-28T06:23:07.000Z,1013.84
2022-11-28T06:24:06.997Z,1013.83
2022-11-28T06:25:06.993Z,1013.83
2022-11-28T06:26:06.983Z,1013.86
2022-11-28T06:27:06.984Z,1013.80
2022-11-28T06:28:06.983Z,1013.79
2022-11-28T06:29:07.086Z,1013.80
2022-11-28T06:30:06.964Z,1013.81
2022-11-28T06:31:06.967Z,1013.76
2022-11-28T06:32:07.019Z,1013.80
2022-11-28T06:33:06.953Z,1013.80
2022-11-28T06:34:06.945Z,1013.74
2022-11-28T06:35:06.945Z,1013.75
2022-11-28T06:36:06.948Z,1013.74
2022-11-28T06:37:06.935Z,1013.71
2022-11-28T06:38:11.438Z,1013.68
2022-11-28T06:39:06.930Z,1013.71
2022-11-28T06:40:06.920Z,1013.65
2022-11-28T06:41:06.918Z,1013.66
2022-11-28T06:42:06.919Z,1013.63
2022-11-28T06:43:06.915Z,1013.64
2022-11-28T06:44:06.901Z,1013.72
2022-11-28T06:45:07.018Z,1013.69
2022-11-28T06:46:06.988Z,1013.71
2022-11-28T06:47:06.891Z,1013.76
2022-11-28T06:48:06.882Z,1013.75
2022-11-28T06:49:06.878Z,1013.71
2022-11-28T06:50:06.876Z,1013.73
2022-11-28T06:51:06.875Z,1013.62
2022-11-28T06:52:06.867Z,1013.65
2022-11-28T06:53:06.862Z,1013.67
2022-11-28T06:54:06.853Z,1013.64
2022-11-28T06:55:06.852Z,1013.68
2022-11-28T06:56:06.850Z,1013.62
2022-11-28T06:57:06.840Z,1013.62
2022-11-28T06:58:06.836Z,1013.64
2022-11-28T06:59:06.839Z,1013.59
2022-11-28T07:00:06.828Z,1013.58
2022-11-28T07:01:06.997Z,1013.62
2022-11-28T07:02:08.017Z,1013.61
2022-11-28T07:03:06.816Z,1013.61
2022-11-28T07:04:06.809Z,1013.63
2022-11-28T07:05:06.804Z,1013.63
2022-11-28T07:06:06.797Z,1013.62
2022-11-28T07:07:06.798Z,1013.65
2022-11-28T07:08:06.862Z,1013.59
2022-11-28T07:09:06.792Z,1013.61
2022-11-28T07:10:06.785Z,1013.55
2022-11-28T07:11:06.776Z,1013.60
2022-11-28T07:12:06.774Z,1013.61
2022-11-28T07:13:06.768Z,1013.60
2022-11-28T07:14:06.759Z,1013.61
2022-11-28T07:15:06.759Z,1013.59
2022-11-28T07:16:06.938Z,1013.61
2022-11-28T07:17:06.967Z,1013.60
2022-11-28T07:18:06.741Z,1013.57
2022-11-28T07:19:06.739Z,1013.62
2022-11-28T07:20:06.750Z,1013.69
2022-11-28T07:21:06.732Z,1013.62
2022-11-28T07:22:06.737Z,1013.62
2022-11-28T07:23:06.724Z,1013.62
2022-11-28T07:24:06.715Z,1013.63
2022-11-28T07:25:06.711Z,1013.61
2022-11-28T07:26:06.702Z,1013.59
2022-11-28T07:27:06.703Z,1013.60
2022-11-28T07:28:06.694Z,1013.58
2022-11-28T07:29:06.699Z,1013.67
2022-11-28T07:30:06.686Z,1013.64
2022-11-28T07:31:06.684Z,1013.60
2022-11-28T07:32:06.760Z,1013.64
2022-11-28T07:33:06.790Z,1013.63
2022-11-28T07:34:06.669Z,1013.64
2022-11-28T07:35:06.662Z,1013.61
2022-11-28T07:36:06.659Z,1013.62
2022-11-28T07:37:06.655Z,1013.64
2022-11-28T07:38:06.650Z,1013.60
2022-11-28T07:39:06.650Z,1013.57
2022-11-28T07:40:06.645Z,1013.58
2022-11-28T07:41:06.638Z,1013.56
2022-11-28T07:42:06.627Z,1013.62
2022-11-28T07:43:06.633Z,1013.61
2022-11-28T07:44:06.632Z,1013.60
2022-11-28T07:45:06.627Z,1013.59
2022-11-28T07:46:06.673Z,1013.65
2022-11-28T07:47:06.749Z,1013.64
2022-11-28T07:48:06.606Z,1013.66
2022-11-28T07:49:06.621Z,1013.66
2022-11-28T07:50:06.594Z,1013.65
2022-11-28T07:51:06.590Z,1013.61
2022-11-28T07:52:06.581Z,1013.65
2022-11-28T07:53:07.444Z,1013.64
2022-11-28T07:54:06.577Z,1013.64
2022-11-28T07:55:06.587Z,1013.62
2022-11-28T07:56:06.563Z,1013.56
2022-11-28T07:57:13.850Z,1013.65
2022-11-28T07:58:06.557Z,1013.60
2022-11-28T07:59:06.562Z,1013.61
2022-11-28T08:00:06.550Z,1013.64
2022-11-28T08:01:06.543Z,1013.59
2022-11-28T08:02:06.615Z,1013.56
2022-11-28T08:03:06.534Z,1013.63
2022-11-28T08:04:06.578Z,1013.64
2022-11-28T08:05:06.569Z,1013.59
2022-11-28T08:06:06.522Z,1013.67
2022-11-28T08:07:06.519Z,1013.62
2022-11-28T08:08:06.585Z,1013.66
2022-11-28T08:09:06.509Z,1013.66
2022-11-28T08:10:06.497Z,1013.62
2022-11-28T08:11:06.506Z,1013.66
2022-11-28T08:13:06.485Z,1013.64
2022-11-28T08:14:06.480Z,1013.63
2022-11-28T08:15:06.483Z,1013.68
2022-11-28T08:16:06.792Z,1013.55
2022-11-28T08:17:06.536Z,1013.67
2022-11-28T08:18:06.464Z,1013.66
2022-11-28T08:19:06.462Z,1013.63
2022-11-28T08:20:06.455Z,1013.60
2022-11-28T08:21:06.486Z,1013.63
2022-11-28T08:22:06.441Z,1013.58
2022-11-28T08:23:06.445Z,1013.55
2022-11-28T08:24:06.434Z,1013.61
2022-11-28T08:25:06.450Z,1013.55
2022-11-28T08:26:06.427Z,1013.58
2022-11-28T08:27:06.436Z,1013.52
2022-11-28T08:28:06.419Z,1013.57
2022-11-28T08:29:06.413Z,1013.55
2022-11-28T08:30:06.408Z,1013.53
2022-11-28T08:31:06.462Z,1013.46
2022-11-28T08:32:06.411Z,1013.45
2022-11-28T08:33:06.398Z,1013.44
2022-11-28T08:34:06.390Z,1013.43
2022-11-28T08:35:06.390Z,1013.43
2022-11-28T08:36:06.381Z,1013.45
2022-11-28T08:37:06.413Z,1013.41
2022-11-28T08:38:06.372Z,1013.39
2022-11-28T08:40:06.366Z,1013.37
2022-11-28T08:41:06.378Z,1013.44
2022-11-28T08:42:06.356Z,1013.43
2022-11-28T08:43:06.355Z,1013.45
2022-11-28T08:44:06.348Z,1013.46
2022-11-28T08:45:06.343Z,1013.45
2022-11-28T08:46:06.415Z,1013.44
2022-11-28T08:47:06.339Z,1013.43
2022-11-28T08:48:06.331Z,1013.44
2022-11-28T08:49:06.326Z,1013.42
2022-11-28T08:50:06.332Z,1013.46
2022-11-28T08:51:06.320Z,1013.46
2022-11-28T08:52:06.315Z,1013.48
2022-11-28T08:53:07.994Z,1013.44
2022-11-28T08:54:06.310Z,1013.48
2022-11-28T08:55:06.305Z,1013.46
2022-11-28T08:56:06.299Z,1013.42
2022-11-28T08:57:06.293Z,1013.46
2022-11-28T08:58:06.286Z,1013.45
2022-11-28T08:59:06.285Z,1013.50
2022-11-28T09:00:06.286Z,1013.49
2022-11-28T09:01:06.363Z,1013.48
2022-11-28T09:02:06.278Z,1013.47
2022-11-28T09:03:06.274Z,1013.44
2022-11-28T09:04:06.316Z,1013.44
2022-11-28T09:05:06.258Z,1013.51
2022-11-28T09:06:06.251Z,1013.46
2022-11-28T09:07:06.361Z,1013.42
2022-11-28T09:08:10.275Z,1013.48
2022-11-28T09:09:06.266Z,1013.41
2022-11-28T09:10:06.233Z,1013.43
2022-11-28T09:11:06.238Z,1013.41
2022-11-28T09:12:06.239Z,1013.52
2022-11-28T09:13:06.226Z,1013.46
2022-11-28T09:14:06.228Z,1013.48
2022-11-28T09:15:06.220Z,1013.44
2022-11-28T09:16:06.519Z,1013.39
2022-11-28T09:17:06.242Z,1013.42
2022-11-28T09:18:06.214Z,1013.44
2022-11-28T09:19:06.199Z,1013.45
2022-11-28T09:20:06.203Z,1013.44
2022-11-28T09:21:06.193Z,1013.37
2022-11-28T09:22:06.196Z,1013.36
2022-11-28T09:23:06.185Z,1013.40
2022-11-28T09:24:06.188Z,1013.41
2022-11-28T09:25:06.199Z,1013.39
2022-11-28T09:26:06.179Z,1013.40
2022-11-28T09:27:06.170Z,1013.41
2022-11-28T09:28:06.170Z,1013.38
2022-11-28T09:29:06.163Z,1013.43
2022-11-28T09:30:06.163Z,1013.43
2022-11-28T09:31:06.233Z,1013.43
2022-11-28T09:32:06.153Z,1013.42
2022-11-28T09:33:06.146Z,1013.47
2022-11-28T09:34:06.143Z,1013.48
2022-11-28T09:35:06.138Z,1013.51
2022-11-28T09:36:06.138Z,1013.45
2022-11-28T09:37:06.128Z,1013.47
2022-11-28T09:38:06.126Z,1013.43
2022-11-28T09:39:06.128Z,1013.47
2022-11-28T09:40:13.187Z,1013.45
2022-11-28T09:41:06.163Z,1013.45
2022-11-28T09:42:06.117Z,1013.42
2022-11-28T09:43:06.114Z,1013.43
2022-11-28T09:44:06.106Z,1013.41
2022-11-28T09:45:06.098Z,1013.45
2022-11-28T09:46:06.268Z,1013.48
2022-11-28T09:47:06.092Z,1013.47
2022-11-28T09:48:06.090Z,1013.47
2022-11-28T09:49:06.080Z,1013.41
2022-11-28T09:50:06.081Z,1013.39
2022-11-28T09:51:06.072Z,1013.39
2022-11-28T09:52:06.143Z,1013.46
2022-11-28T09:53:06.067Z,1013.37
2022-11-28T09:54:06.078Z,1013.40
2022-11-28T09:55:06.056Z,1013.36
2022-11-28T09:56:06.061Z,1013.39
2022-11-28T09:57:06.077Z,1013.36
2022-11-28T09:58:06.050Z,1013.29
2022-11-28T09:59:06.047Z,1013.28
2022-11-28T10:00:06.044Z,1013.28
2022-11-28T10:01:06.033Z,1013.25
2022-11-28T10:02:06.035Z,1013.27
2022-11-28T10:03:06.042Z,1013.20
2022-11-28T10:04:06.200Z,1013.19
2022-11-28T10:05:06.119Z,1013.17
2022-11-28T10:06:06.020Z,1013.16
2022-11-28T10:07:06.016Z,1013.16
2022-11-28T10:08:06.088Z,1013.22
2022-11-28T10:09:06.008Z,1013.13
2022-11-28T10:10:06.006Z,1013.15
2022-11-28T10:11:06.004Z,1013.15
2022-11-28T10:12:06.003Z,1013.21
2022-11-28T10:13:06.015Z,1013.21
2022-11-28T10:14:08.380Z,1013.13
2022-11-28T10:15:05.988Z,1013.22
2022-11-28T10:16:05.986Z,1013.20
2022-11-28T10:17:06.006Z,1013.18
2022-11-28T10:18:05.988Z,1013.30
2022-11-28T10:19:05.969Z,1013.22
2022-11-28T10:20:05.972Z,1013.19
2022-11-28T10:21:05.972Z,1013.27
2022-11-28T10:22:05.962Z,1013.23
2022-11-28T10:23:05.958Z,1013.16
2022-11-28T10:24:05.961Z,1013.25
2022-11-28T10:25:05.955Z,1013.17
2022-11-28T10:26:05.949Z,1013.20
2022-11-28T10:27:05.942Z,1013.17
2022-11-28T10:28:05.943Z,1013.13
2022-11-28T10:29:06.005Z,1013.19
2022-11-28T10:30:05.935Z,1013.22
2022-11-28T10:31:06.003Z,1013.20
2022-11-28T10:32:05.926Z,1013.17
2022-11-28T10:33:05.919Z,1013.16
2022-11-28T10:34:05.919Z,1013.15
2022-11-28T10:35:05.917Z,1013.21
2022-11-28T10:36:05.922Z,1013.21
2022-11-28T10:37:05.908Z,1013.18
2022-11-28T10:38:05.910Z,1013.20
2022-11-28T10:39:09.901Z,1013.18
2022-11-28T10:40:05.905Z,1013.11
2022-11-28T10:41:05.898Z,1013.09
2022-11-28T10:42:05.892Z,1013.11
2022-11-28T10:43:05.890Z,1013.11
2022-11-28T10:44:05.887Z,1013.04
2022-11-28T10:45:05.923Z,1012.98
2022-11-28T10:46:05.959Z,1012.97
2022-11-28T10:47:05.874Z,1012.98
2022-11-28T10:48:37.121Z,1012.94
2022-11-28T10:49:05.870Z,1012.88
2022-11-28T10:50:05.869Z,1012.95
2022-11-28T10:51:05.865Z,1012.86
2022-11-28T10:52:05.864Z,1012.84
2022-11-28T10:53:05.855Z,1012.84
2022-11-28T10:54:05.856Z,1012.81
2022-11-28T10:55:05.850Z,1012.81
2022-11-28T10:56:11.108Z,1012.74
2022-11-28T10:57:05.852Z,1012.75
2022-11-28T10:58:06.234Z,1012.74
2022-11-28T10:59:05.837Z,1012.74
2022-11-28T11:00:05.840Z,1012.73
2022-11-28T11:01:05.898Z,1012.76
2022-11-28T11:02:05.881Z,1012.73
2022-11-28T11:03:05.822Z,1012.74
2022-11-28T11:04:05.858Z,1012.70
2022-11-28T11:05:05.889Z,1012.72
2022-11-28T11:06:05.823Z,1012.72
2022-11-28T11:07:11.244Z,1012.72
2022-11-28T11:08:05.883Z,1012.76
2022-11-28T11:09:05.802Z,1012.68
2022-11-28T11:10:05.808Z,1012.68
2022-11-28T11:11:05.802Z,1012.69
2022-11-28T11:12:05.798Z,1012.74
2022-11-28T11:13:05.797Z,1012.67
2022-11-28T11:14:05.814Z,1012.69
2022-11-28T11:15:05.787Z,1012.70
2022-11-28T11:16:05.846Z,1012.67
2022-11-28T11:17:05.806Z,1012.72
2022-11-28T11:18:05.795Z,1012.73
2022-11-28T11:19:05.778Z,1012.66
2022-11-28T11:20:05.776Z,1012.69
2022-11-28T11:21:05.768Z,1012.72
2022-11-28T11:22:05.770Z,1012.73
2022-11-28T11:23:05.775Z,1012.71
2022-11-28T11:24:05.760Z,1012.72
2022-11-28T11:25:05.753Z,1012.77
2022-11-28T11:26:05.754Z,1012.77
2022-11-28T11:27:05.761Z,1012.70
2022-11-28T11:28:05.752Z,1012.72
2022-11-28T11:29:05.739Z,1012.69
2022-11-28T11:30:05.746Z,1012.73
2022-11-28T11:31:05.885Z,1012.67
2022-11-28T11:32:05.741Z,1012.67
2022-11-28T11:33:05.750Z,1012.73
2022-11-28T11:34:05.735Z,1012.68
2022-11-28T11:35:05.726Z,1012.73
2022-11-28T11:36:05.725Z,1012.73
2022-11-28T11:37:05.716Z,1012.68
2022-11-28T11:38:05.716Z,1012.68
2022-11-28T11:39:05.708Z,1012.66
2022-11-28T11:40:05.711Z,1012.61
2022-11-28T11:41:05.704Z,1012.64
2022-11-28T11:42:05.704Z,1012.63
2022-11-28T11:43:05.713Z,1012.62
2022-11-28T11:44:05.705Z,1012.53
2022-11-28T11:45:05.693Z,1012.56
2022-11-28T11:46:05.780Z,1012.56
2022-11-28T11:47:05.691Z,1012.56
2022-11-28T11:48:05.688Z,1012.56
2022-11-28T11:49:05.704Z,1012.56
2022-11-28T11:50:05.678Z,1012.50
2022-11-28T11:51:05.675Z,1012.48
2022-11-28T11:52:05.680Z,1012.48
2022-11-28T11:53:05.666Z,1012.51
2022-11-28T11:54:05.669Z,1012.50
2022-11-28T11:55:05.664Z,1012.53
2022-11-28T11:56:05.666Z,1012.59
2022-11-28T11:57:31.416Z,1012.59
2022-11-28T11:58:06.156Z,1012.62
2022-11-28T11:59:05.648Z,1012.56
2022-11-28T12:00:05.651Z,1012.60
2022-11-28T12:01:05.645Z,1012.58
2022-11-28T12:02:05.723Z,1012.61
2022-11-28T12:03:05.759Z,1012.64
2022-11-28T12:04:23.880Z,1012.61
2022-11-28T12:05:05.707Z,1012.57
2022-11-28T12:06:14.214Z,1012.58
2022-11-28T12:07:05.628Z,1012.58